createdAt,value
2019-02-28T00:02:41.543Z,38.50
2019-02-28T00:05:45.867Z,38.30
2019-02-28T00:08:51.073Z,38.30
2019-02-28T00:11:59.914Z,38.20
2019-02-28T00:15:04.369Z,38.20
2019-02-28T00:18:09.066Z,38.20
2019-02-28T00:21:13.590Z,38.10
2019-02-28T00:24:17.947Z,38.00
2019-02-28T00:27:22.743Z,38.00
2019-02-28T00:30:27.087Z,37.90
2019-02-28T00:33:31.860Z,37.90
2019-02-28T00:36:36.262Z,37.90
2019-02-28T00:39:40.524Z,37.80
2019-02-28T00:42:45.178Z,37.80
2019-02-28T00:45:49.904Z,37.70
2019-02-28T00:48:54.231Z,37.70
2019-02-28T00:52:01.606Z,37.80
2019-02-28T00:55:04.829Z,37.80
2019-02-28T00:58:09.502Z,37.80
2019-02-28T01:01:13.822Z,37.80
2019-02-28T01:04:18.229Z,38.40
2019-02-28T01:07:22.551Z,37.90
2019-02-28T01:10:26.898Z,37.70
2019-02-28T01:13:31.572Z,37.70
2019-02-28T01:16:35.875Z,37.60
2019-02-28T01:19:41.330Z,37.50
2019-02-28T01:22:46.251Z,37.50
2019-02-28T01:25:50.920Z,37.60
2019-02-28T01:28:55.295Z,37.70
2019-02-28T01:31:59.632Z,37.70
2019-02-28T01:35:06.797Z,37.70
2019-02-28T01:38:11.369Z,37.70
2019-02-28T01:41:16.011Z,37.60
2019-02-28T01:44:20.757Z,37.60
2019-02-28T01:47:25.702Z,37.70
2019-02-28T01:50:30.457Z,37.60
2019-02-28T01:53:34.979Z,37.50
2019-02-28T01:56:39.604Z,37.50
2019-02-28T01:59:43.871Z,37.40
2019-02-28T02:02:48.581Z,37.40
2019-02-28T02:05:52.964Z,37.30
2019-02-28T02:08:57.327Z,37.20
2019-02-28T02:12:01.702Z,37.80
2019-02-28T02:15:08.383Z,37.10
2019-02-28T02:18:12.790Z,37.10
2019-02-28T02:21:17.168Z,37.00
2019-02-28T02:24:24.387Z,36.90
2019-02-28T02:27:28.243Z,36.80
2019-02-28T02:30:32.501Z,36.70
2019-02-28T02:33:37.221Z,36.80
2019-02-28T02:36:41.962Z,36.80
2019-02-28T02:39:50.226Z,36.80
2019-02-28T02:42:52.321Z,36.70
2019-02-28T02:45:56.657Z,36.70
2019-02-28T02:49:01.217Z,36.70
2019-02-28T02:52:05.603Z,36.60
2019-02-28T02:55:09.985Z,36.70
2019-02-28T02:58:14.309Z,36.70
2019-02-28T03:01:23.049Z,36.70
2019-02-28T03:04:24.722Z,36.70
2019-02-28T03:07:29.040Z,36.80
2019-02-28T03:10:33.642Z,36.70
2019-02-28T03:13:43.755Z,36.80
2019-02-28T03:16:44.833Z,36.80
2019-02-28T03:19:49.492Z,36.90
2019-02-28T03:22:56.595Z,37.50
2019-02-28T03:26:05.751Z,36.50
2019-02-28T03:29:08.058Z,37.60
2019-02-28T03:32:13.860Z,37.10
2019-02-28T03:35:18.350Z,37.00
2019-02-28T03:38:22.723Z,36.90
2019-02-28T03:41:27.257Z,37.00
2019-02-28T03:44:31.625Z,37.10
2019-02-28T03:47:37.145Z,37.00
2019-02-28T03:50:41.468Z,36.90
2019-02-28T03:53:46.140Z,36.90
2019-02-28T03:56:52.806Z,37.00
2019-02-28T03:59:57.045Z,37.00
2019-02-28T04:03:01.538Z,37.20
2019-02-28T04:06:05.951Z,37.20
2019-02-28T04:09:10.386Z,37.20
2019-02-28T04:12:14.771Z,37.40
2019-02-28T04:15:19.475Z,37.30
2019-02-28T04:18:24.195Z,37.30
2019-02-28T04:21:28.869Z,37.20
2019-02-28T04:24:33.192Z,37.20
2019-02-28T04:27:40.514Z,37.20
2019-02-28T04:30:44.063Z,37.30
2019-02-28T04:33:48.527Z,37.20
2019-02-28T04:36:53.227Z,37.30
2019-02-28T04:39:57.508Z,37.30
2019-02-28T04:43:01.821Z,37.30
2019-02-28T04:46:06.196Z,37.40
2019-02-28T04:49:10.507Z,37.40
2019-02-28T04:52:14.847Z,38.10
2019-02-28T04:55:19.262Z,37.50
2019-02-28T04:58:25.264Z,37.60
2019-02-28T05:01:30.873Z,37.60
2019-02-28T05:04:36.142Z,37.60
2019-02-28T05:07:41.079Z,37.60
2019-02-28T05:10:45.457Z,37.60
2019-02-28T05:13:49.734Z,37.60
2019-02-28T05:16:54.134Z,37.60
2019-02-28T05:19:58.522Z,37.70
2019-02-28T05:23:02.983Z,37.80
2019-02-28T05:26:08.666Z,38.00
2019-02-28T05:29:13.122Z,37.90
2019-02-28T05:32:17.427Z,37.90
2019-02-28T05:35:25.249Z,38.00
2019-02-28T05:38:30.921Z,38.10
2019-02-28T05:41:36.661Z,38.00
2019-02-28T05:44:41.383Z,38.00
2019-02-28T05:47:47.144Z,38.00
2019-02-28T05:50:53.307Z,38.10
2019-02-28T05:53:58.402Z,38.10
2019-02-28T05:57:04.644Z,38.10
2019-02-28T06:00:10.175Z,38.20
2019-02-28T06:03:14.936Z,38.10
2019-02-28T06:06:20.175Z,38.10
2019-02-28T06:09:26.328Z,38.30
2019-02-28T06:12:31.037Z,38.20
2019-02-28T06:15:37.155Z,38.30
2019-02-28T06:18:41.565Z,38.30
2019-02-28T06:21:45.846Z,38.40
2019-02-28T06:24:50.153Z,38.50
2019-02-28T06:27:54.845Z,38.50
2019-02-28T06:31:00.266Z,38.60
2019-02-28T06:34:05.673Z,38.60
2019-02-28T06:37:10.971Z,38.80
2019-02-28T06:40:15.344Z,38.80
2019-02-28T06:43:19.777Z,39.10
2019-02-28T06:46:24.164Z,38.90
2019-02-28T06:49:28.494Z,38.80
2019-02-28T06:52:32.897Z,39.00
2019-02-28T06:55:47.442Z,39.00
2019-02-28T06:58:52.850Z,39.10
2019-02-28T07:01:57.790Z,39.10
2019-02-28T07:05:02.176Z,39.20
2019-02-28T07:08:06.876Z,39.40
2019-02-28T07:11:11.179Z,40.00
2019-02-28T07:14:15.500Z,39.40
2019-02-28T07:17:19.858Z,39.50
2019-02-28T07:20:24.615Z,39.50
2019-02-28T07:23:29.995Z,39.50
2019-02-28T07:26:35.235Z,39.60
2019-02-28T07:29:42.663Z,39.70
2019-02-28T07:32:46.116Z,39.80
2019-02-28T07:35:50.535Z,40.00
2019-02-28T07:38:54.951Z,40.10
2019-02-28T07:42:02.230Z,40.50
2019-02-28T07:45:05.637Z,41.10
2019-02-28T07:48:10.013Z,41.40
2019-02-28T07:51:14.442Z,41.50
2019-02-28T07:54:20.437Z,41.50
2019-02-28T07:57:25.161Z,41.20
2019-02-28T08:00:29.844Z,40.90
2019-02-28T08:03:34.574Z,41.30
2019-02-28T08:06:40.505Z,40.40
2019-02-28T08:10:03.989Z,40.00
2019-02-28T08:13:10.295Z,39.30
2019-02-28T08:16:15.038Z,39.40
2019-02-28T08:19:19.719Z,39.00
2019-02-28T08:22:24.740Z,38.80
2019-02-28T08:25:29.271Z,38.70
2019-02-28T08:28:36.774Z,38.40
2019-02-28T08:31:39.752Z,38.00
2019-02-28T08:34:44.096Z,38.00
2019-02-28T08:37:55.773Z,37.80
2019-02-28T08:40:54.755Z,37.60
2019-02-28T08:43:59.463Z,37.50
2019-02-28T08:47:05.316Z,37.40
2019-02-28T08:50:19.122Z,37.10
2019-02-28T08:53:22.595Z,37.20
2019-02-28T08:56:27.196Z,37.30
2019-02-28T08:59:31.624Z,37.30
2019-02-28T09:02:36.029Z,36.90
2019-02-28T09:05:40.370Z,37.00
2019-02-28T09:08:44.697Z,36.90
2019-02-28T09:11:49.081Z,36.70
2019-02-28T09:14:55.418Z,36.60
2019-02-28T09:17:59.827Z,36.30
2019-02-28T09:21:04.545Z,36.10
2019-02-28T09:24:09.404Z,36.20
2019-02-28T09:27:15.590Z,36.20
2019-02-28T09:30:26.451Z,36.10
2019-02-28T09:33:31.952Z,36.10
2019-02-28T09:36:36.400Z,36.10
2019-02-28T09:39:41.261Z,36.00
2019-02-28T09:42:47.888Z,35.80
2019-02-28T09:45:52.098Z,35.50
2019-02-28T09:49:05.695Z,35.30
2019-02-28T09:52:10.317Z,35.10
2019-02-28T09:55:16.424Z,35.10
2019-02-28T09:58:20.834Z,34.80
2019-02-28T10:01:25.239Z,34.90
2019-02-28T10:04:30.476Z,34.60
2019-02-28T10:07:35.617Z,34.60
2019-02-28T10:10:40.850Z,35.30
2019-02-28T10:13:45.298Z,34.40
2019-02-28T10:16:52.553Z,34.20
2019-02-28T10:19:55.798Z,34.20
2019-02-28T10:23:00.194Z,34.10
2019-02-28T10:26:04.700Z,34.10
2019-02-28T10:29:08.997Z,34.20
2019-02-28T10:32:13.411Z,34.20
2019-02-28T10:35:18.589Z,34.20
2019-02-28T10:38:22.954Z,34.30
2019-02-28T10:41:27.965Z,34.50
2019-02-28T10:44:33.389Z,34.10
2019-02-28T10:47:37.711Z,33.90
2019-02-28T10:50:43.762Z,33.90
2019-02-28T10:53:48.133Z,33.80
2019-02-28T10:56:52.482Z,33.80
2019-02-28T10:59:58.240Z,34.00
2019-02-28T11:03:03.313Z,33.80
2019-02-28T11:06:07.992Z,33.50
2019-02-28T11:09:21.406Z,33.60
2019-02-28T11:12:26.018Z,33.50
2019-02-28T11:15:31.859Z,33.30
2019-02-28T11:18:37.339Z,33.30
2019-02-28T11:21:41.910Z,33.40
2019-02-28T11:24:48.137Z,33.20
2019-02-28T11:27:53.755Z,33.10
2019-02-28T11:30:58.916Z,33.10
2019-02-28T11:34:03.321Z,33.40
2019-02-28T11:37:10.051Z,33.70
2019-02-28T11:40:14.695Z,33.80
2019-02-28T11:43:19.210Z,33.70
2019-02-28T11:46:23.883Z,33.50
2019-02-28T11:49:29.370Z,33.40
2019-02-28T11:52:33.800Z,33.30
2019-02-28T11:55:38.270Z,33.50
2019-02-28T11:58:42.688Z,34.00
2019-02-28T12:01:48.372Z,33.40
2019-02-28T12:04:52.957Z,33.20
2019-02-28T12:07:57.348Z,33.00
2019-02-28T12:11:02.856Z,32.90
2019-02-28T12:14:07.325Z,33.00
2019-02-28T12:17:11.832Z,33.10
2019-02-28T12:20:16.194Z,33.10
2019-02-28T12:23:23.511Z,33.20
2019-02-28T12:26:26.774Z,33.10
2019-02-28T12:29:31.140Z,33.20
2019-02-28T12:32:35.491Z,33.30
2019-02-28T12:35:40.728Z,33.40
2019-02-28T12:38:46.356Z,33.80
2019-02-28T12:41:50.758Z,34.10
2019-02-28T12:44:55.082Z,34.20
2019-02-28T12:47:59.573Z,34.20
2019-02-28T12:51:05.404Z,34.40
2019-02-28T12:54:13.713Z,34.80
2019-02-28T12:57:19.283Z,34.50
2019-02-28T13:00:36.051Z,34.80
2019-02-28T13:03:40.476Z,34.60
2019-02-28T13:06:45.517Z,34.60
2019-02-28T13:09:51.527Z,34.60
2019-02-28T13:13:05.773Z,34.60
2019-02-28T13:16:02.798Z,34.70
2019-02-28T13:19:07.758Z,34.80
2019-02-28T13:22:13.585Z,35.20
2019-02-28T13:25:19.342Z,35.50
2019-02-28T13:28:24.132Z,35.90
2019-02-28T13:31:28.450Z,36.00
2019-02-28T13:34:32.780Z,36.10
2019-02-28T13:37:37.459Z,36.20
2019-02-28T13:40:44.895Z,36.30
2019-02-28T13:43:49.430Z,36.30
2019-02-28T13:46:53.795Z,36.50
2019-02-28T13:49:58.253Z,36.60
2019-02-28T13:53:16.610Z,36.70
2019-02-28T13:56:08.687Z,36.80
2019-02-28T13:59:13.123Z,37.00
2019-02-28T14:02:17.623Z,36.70
2019-02-28T14:05:22.447Z,37.10
2019-02-28T14:08:26.774Z,37.10
2019-02-28T14:11:31.261Z,37.20
2019-02-28T14:14:38.941Z,37.20
2019-02-28T14:17:41.736Z,37.20
2019-02-28T14:20:46.111Z,37.30
2019-02-28T14:23:52.465Z,37.60
2019-02-28T14:26:58.553Z,37.70
2019-02-28T14:30:06.585Z,37.70
2019-02-28T14:33:16.124Z,37.80
2019-02-28T14:36:19.557Z,37.90
2019-02-28T14:39:24.324Z,38.00
2019-02-28T14:42:28.722Z,38.00
2019-02-28T14:45:34.328Z,37.90
2019-02-28T14:48:39.874Z,38.00
2019-02-28T14:51:44.672Z,38.10
2019-02-28T14:54:49.376Z,38.10
2019-02-28T14:57:55.183Z,38.40
2019-02-28T15:00:59.650Z,38.50
2019-02-28T15:04:04.085Z,38.40
2019-02-28T15:07:08.409Z,38.50
2019-02-28T15:10:15.290Z,38.50
2019-02-28T15:13:20.478Z,38.60
2019-02-28T15:16:26.544Z,38.80
2019-02-28T15:19:30.901Z,38.90
2019-02-28T15:22:35.432Z,38.90
2019-02-28T15:25:40.176Z,39.20
2019-02-28T15:28:45.575Z,39.20
2019-02-28T15:31:50.969Z,39.30
2019-02-28T15:34:55.317Z,39.30
2019-02-28T15:37:59.638Z,39.30
2019-02-28T15:41:04.408Z,39.60
2019-02-28T15:44:09.115Z,39.40
2019-02-28T15:47:14.592Z,39.30
2019-02-28T15:50:19.464Z,39.30
2019-02-28T15:53:24.928Z,39.30
2019-02-28T15:56:29.601Z,39.30
2019-02-28T15:59:34.529Z,39.30
2019-02-28T16:02:42.068Z,39.30
2019-02-28T16:05:45.358Z,39.40
2019-02-28T16:08:49.693Z,39.40
2019-02-28T16:11:54.464Z,39.50
2019-02-28T16:15:01.067Z,39.60
2019-02-28T16:18:08.645Z,39.70
2019-02-28T16:21:13.211Z,39.80
2019-02-28T16:24:17.556Z,39.80
2019-02-28T16:27:22.289Z,39.90
2019-02-28T16:30:28.786Z,39.90
2019-02-28T16:33:33.534Z,40.00
2019-02-28T16:36:37.911Z,40.20
2019-02-28T16:39:42.260Z,40.20
2019-02-28T16:42:47.251Z,40.40
2019-02-28T16:45:51.699Z,40.40
2019-02-28T16:48:56.376Z,40.60
2019-02-28T16:52:02.535Z,40.60
2019-02-28T16:55:08.611Z,40.60
2019-02-28T16:58:12.959Z,40.80
2019-02-28T17:01:20.587Z,40.80
2019-02-28T17:04:26.622Z,40.80
2019-02-28T17:07:31.027Z,40.90
2019-02-28T17:10:40.008Z,41.00
2019-02-28T17:13:56.422Z,40.90
2019-02-28T17:17:11.827Z,41.10
2019-02-28T17:20:16.496Z,41.10
2019-02-28T17:23:20.822Z,41.20
2019-02-28T17:27:02.396Z,41.30
2019-02-28T17:30:28.096Z,41.50
2019-02-28T17:33:32.578Z,41.60
2019-02-28T17:36:36.939Z,41.60
2019-02-28T17:39:41.366Z,41.80
2019-02-28T17:42:46.408Z,41.80
2019-02-28T17:45:51.839Z,42.10
2019-02-28T17:49:30.387Z,42.00
2019-02-28T17:53:00.468Z,42.30
2019-02-28T17:56:33.219Z,42.10
2019-02-28T18:00:24.392Z,42.20
2019-02-28T18:04:20.885Z,42.10
2019-02-28T18:07:50.707Z,42.30
2019-02-28T18:11:34.055Z,42.30
2019-02-28T18:15:01.177Z,42.50
2019-02-28T18:18:51.526Z,42.50
2019-02-28T18:22:40.115Z,42.60
2019-02-28T18:26:25.729Z,42.50
2019-02-28T18:30:05.352Z,42.60
2019-02-28T18:33:10.192Z,42.80
2019-02-28T18:36:17.898Z,42.70
2019-02-28T18:39:23.197Z,43.00
2019-02-28T18:42:27.601Z,43.10
2019-02-28T18:45:33.860Z,43.10
2019-02-28T18:48:39.504Z,43.20
2019-02-28T18:51:45.638Z,43.30
2019-02-28T18:54:50.844Z,43.50
2019-02-28T18:57:57.060Z,43.50
2019-02-28T19:01:01.389Z,43.50
2019-02-28T19:04:06.161Z,44.50
2019-02-28T19:07:10.514Z,43.80
2019-02-28T19:10:15.437Z,44.00
2019-02-28T19:13:20.183Z,44.10
2019-02-28T19:16:26.031Z,44.20
2019-02-28T19:19:30.456Z,44.40
2019-02-28T19:22:35.658Z,44.40
2019-02-28T19:25:41.792Z,44.50
2019-02-28T19:28:46.743Z,44.50
2019-02-28T19:31:51.106Z,44.70
2019-02-28T19:34:55.428Z,45.40
2019-02-28T19:38:00.919Z,44.80
2019-02-28T19:41:05.656Z,44.80
2019-02-28T19:44:10.065Z,44.70
2019-02-28T19:47:14.679Z,44.70
2019-02-28T19:50:19.068Z,44.70
2019-02-28T19:53:23.779Z,44.80
2019-02-28T19:56:28.463Z,45.00
2019-02-28T19:59:33.207Z,45.00
2019-02-28T20:02:38.404Z,45.10
2019-02-28T20:05:42.749Z,45.10
2019-02-28T20:08:47.657Z,45.10
2019-02-28T20:11:52.455Z,45.30
2019-02-28T20:14:56.868Z,45.30
2019-02-28T20:18:02.593Z,45.30
2019-02-28T20:21:07.370Z,45.40
2019-02-28T20:24:11.786Z,45.40
2019-02-28T20:27:16.152Z,45.50
2019-02-28T20:30:22.547Z,45.50
2019-02-28T20:33:27.370Z,45.60
2019-02-28T20:36:34.204Z,45.70
2019-02-28T20:39:40.931Z,45.80
2019-02-28T20:42:45.285Z,45.80
2019-02-28T20:45:51.735Z,45.80
2019-02-28T20:48:56.078Z,45.90
2019-02-28T20:52:03.162Z,45.90
2019-02-28T20:55:08.227Z,46.10
2019-02-28T20:58:13.081Z,46.20
2019-02-28T21:01:17.869Z,46.30
2019-02-28T21:04:22.222Z,46.50
2019-02-28T21:07:26.552Z,46.50
2019-02-28T21:10:30.884Z,47.20
2019-02-28T21:13:35.323Z,46.70
2019-02-28T21:16:40.767Z,46.70
2019-02-28T21:19:46.315Z,46.60
2019-02-28T21:22:50.970Z,46.50
2019-02-28T21:25:57.221Z,46.60
2019-02-28T21:29:03.343Z,46.60
2019-02-28T21:32:09.157Z,46.60
2019-02-28T21:35:15.458Z,46.50
2019-02-28T21:38:19.798Z,46.50
2019-02-28T21:41:24.474Z,46.50
2019-02-28T21:44:30.665Z,46.50
2019-02-28T21:47:34.996Z,46.50
2019-02-28T21:50:39.612Z,46.50
2019-02-28T21:53:44.253Z,46.60
2019-02-28T21:56:48.590Z,46.60
2019-02-28T21:59:53.309Z,46.60
2019-02-28T22:02:57.604Z,46.90
2019-02-28T22:06:03.486Z,46.90
2019-02-28T22:09:09.477Z,47.00
2019-02-28T22:12:13.798Z,47.00
2019-02-28T22:15:19.143Z,47.20
2019-02-28T22:18:23.526Z,47.10
2019-02-28T22:21:27.921Z,47.10
2019-02-28T22:24:32.262Z,47.10
2019-02-28T22:27:36.615Z,47.10
2019-02-28T22:31:00.056Z,47.20
2019-02-28T22:34:22.180Z,47.20
2019-02-28T22:37:26.558Z,47.10
2019-02-28T22:40:30.905Z,47.20
2019-02-28T22:43:35.238Z,47.30
2019-02-28T22:46:43.808Z,47.30
2019-02-28T22:49:48.169Z,47.40
2019-02-28T22:52:54.997Z,47.40
2019-02-28T22:55:59.693Z,47.50
2019-02-28T22:59:04.116Z,47.50
2019-02-28T23:02:08.627Z,47.50
2019-02-28T23:05:13.086Z,48.20
2019-02-28T23:08:18.777Z,47.70
2019-02-28T23:11:24.493Z,48.00
2019-02-28T23:14:29.252Z,47.90
2019-02-28T23:17:34.128Z,48.00
2019-02-28T23:20:38.742Z,48.20
2019-02-28T23:23:43.105Z,48.50
2019-02-28T23:27:12.809Z,48.60
2019-02-28T23:30:28.388Z,48.80
2019-02-28T23:33:32.764Z,49.00
2019-02-28T23:36:39.483Z,49.30
2019-02-28T23:39:44.784Z,49.40
2019-02-28T23:42:50.619Z,49.50
2019-02-28T23:45:55.453Z,49.70
2019-02-28T23:49:00.274Z,50.40
2019-02-28T23:52:04.689Z,49.90
2019-02-28T23:55:09.642Z,49.80
2019-02-28T23:58:14.651Z,49.90
